Time;durP1;ratioP1;P1;durP2;ratioP2;P2;SDS_P1;SDS_P2;PMS_P1;PMS_P2;Temp;Humidity;BMP_temperature;BMP_pressure;BME280_temperature;BME280_humidity;BME280_pressure;Samples;Min_cycle;Max_cycle;Signal;HPM_P1;HPM_P2
2023/05/27 00:00:08;;;;;;;;;13.00;13.00;;;;;;;;5039454;28;45280;-75
2023/05/27 00:02:33;;;;;;;;;18.33;17.00;;;;;;;;5039686;28;45260;-75
2023/05/27 00:04:59;;;;;;;;;16.67;14.00;;;;;;;;5039597;28;45227;-75
2023/05/27 00:07:24;;;;;;;;;13.00;13.00;;;;;;;;5039429;28;45279;-74
2023/05/27 00:09:49;;;;;;;;;13.00;12.67;;;;;;;;5039469;28;45823;-75
2023/05/27 00:12:15;;;;;;;;;14.00;12.00;;;;;;;;5039451;28;45207;-75
2023/05/27 00:14:40;;;;;;;;;13.33;11.67;;;;;;;;5039473;28;45209;-75
2023/05/27 00:17:05;;;;;;;;;15.67;14.33;;;;;;;;5039422;28;45494;-75
2023/05/27 00:19:30;;;;;;;;;13.00;12.33;;;;;;;;5039392;28;45401;-75
2023/05/27 00:21:56;;;;;;;;;15.00;13.33;;;;;;;;5039385;28;45374;-74
2023/05/27 00:24:21;;;;;;;;;15.00;13.33;;;;;;;;5038054;28;45658;-75
2023/05/27 00:26:47;;;;;;;;;17.00;14.67;;;;;;;;5039204;28;45207;-75
2023/05/27 00:29:12;;;;;;;;;14.00;12.00;;;;;;;;5045178;28;48132;-75
2023/05/27 00:31:38;;;;;;;;;12.67;9.67;;;;;;;;5059240;28;45240;-75
2023/05/27 00:34:03;;;;;;;;;11.33;11.33;;;;;;;;5059584;28;45375;-75
2023/05/27 00:36:29;;;;;;;;;16.00;11.00;;;;;;;;5059001;28;45421;-74
2023/05/27 00:38:54;;;;;;;;;15.00;15.00;;;;;;;;5058987;28;45291;-75
2023/05/27 00:41:19;;;;;;;;;18.33;14.33;;;;;;;;5059174;28;45388;-75
2023/05/27 00:43:45;;;;;;;;;13.00;11.67;;;;;;;;5059130;28;45402;-75
2023/05/27 00:46:10;;;;;;;;;13.33;13.33;;;;;;;;5060181;28;47326;-75
2023/05/27 00:48:36;;;;;;;;;13.00;12.00;;;;;;;;5062710;28;46191;-75
2023/05/27 00:51:01;;;;;;;;;17.67;12.67;;;;;;;;5062598;28;45356;-75
2023/05/27 00:53:26;;;;;;;;;13.67;12.67;;;;;;;;5061195;28;45252;-75
2023/05/27 00:55:56;;;;;;;;;13.00;11.00;;;;;;;;5062534;28;45490;-75
2023/05/27 00:58:23;;;;;;;;;13.67;12.67;;;;;;;;5062374;28;45639;-75
2023/05/27 01:00:48;;;;;;;;;10.33;10.00;;;;;;;;5062392;28;45272;-75
2023/05/27 01:03:15;;;;;;;;;14.00;12.33;;;;;;;;5062568;28;45432;-75
2023/05/27 01:05:40;;;;;;;;;14.00;11.33;;;;;;;;5062317;28;45438;-75
2023/05/27 01:08:05;;;;;;;;;15.67;14.33;;;;;;;;5062272;28;45296;-75
2023/05/27 01:10:30;;;;;;;;;12.00;12.00;;;;;;;;5062467;28;45799;-75
2023/05/27 01:13:00;;;;;;;;;14.33;12.67;;;;;;;;5062583;28;45434;-75
2023/05/27 01:15:26;;;;;;;;;15.00;14.67;;;;;;;;5060707;28;46295;-75
2023/05/27 01:17:55;;;;;;;;;13.00;13.00;;;;;;;;5060643;28;48376;-75
2023/05/27 01:20:20;;;;;;;;;13.00;12.00;;;;;;;;5062029;28;45342;-74
2023/05/27 01:22:47;;;;;;;;;14.33;12.67;;;;;;;;5062374;28;45314;-74
2023/05/27 01:25:12;;;;;;;;;11.67;11.67;;;;;;;;5060791;28;47447;-75
2023/05/27 01:27:40;;;;;;;;;12.67;10.33;;;;;;;;5061995;28;46239;-75
2023/05/27 01:30:06;;;;;;;;;13.33;11.67;;;;;;;;5061608;28;45311;-74
2023/05/27 01:32:37;;;;;;;;;17.33;14.00;;;;;;;;5062036;28;45318;-74
2023/05/27 01:35:07;;;;;;;;;13.33;12.00;;;;;;;;5061937;28;45536;-74
2023/05/27 01:37:35;;;;;;;;;12.67;12.33;;;;;;;;5059970;28;47314;-74
2023/05/27 01:40:04;;;;;;;;;14.33;12.00;;;;;;;;5061636;28;45417;-75
2023/05/27 01:42:30;;;;;;;;;11.00;10.33;;;;;;;;5061191;28;45401;-74
2023/05/27 01:44:56;;;;;;;;;10.00;9.67;;;;;;;;5061462;28;45238;-74
2023/05/27 01:47:21;;;;;;;;;14.33;13.00;;;;;;;;5061725;28;45474;-75
2023/05/27 01:49:46;;;;;;;;;17.33;17.00;;;;;;;;5060415;28;45946;-75
2023/05/27 01:52:11;;;;;;;;;14.00;12.33;;;;;;;;5061685;28;45331;-74
2023/05/27 01:54:37;;;;;;;;;12.33;12.33;;;;;;;;5061697;28;45288;-74
2023/05/27 01:57:03;;;;;;;;;11.00;10.33;;;;;;;;5060551;28;46012;-75
2023/05/27 01:59:28;;;;;;;;;11.67;11.67;;;;;;;;5041324;28;45414;-74
2023/05/27 02:01:53;;;;;;;;;12.00;12.00;;;;;;;;5041589;28;45370;-75
2023/05/27 02:04:18;;;;;;;;;13.33;12.33;;;;;;;;5041315;28;45482;-75
2023/05/27 02:06:43;;;;;;;;;12.67;12.00;;;;;;;;5041297;28;46220;-75
2023/05/27 02:09:10;;;;;;;;;13.00;13.00;;;;;;;;5041321;28;45406;-75
2023/05/27 02:11:36;;;;;;;;;15.33;12.33;;;;;;;;5041344;28;45317;-75
2023/05/27 02:14:01;;;;;;;;;9.67;9.33;;;;;;;;5041028;28;45559;-75
2023/05/27 02:16:26;;;;;;;;;14.67;13.67;;;;;;;;5040831;28;46081;-75
2023/05/27 02:18:51;;;;;;;;;15.33;10.33;;;;;;;;5041200;28;45430;-74
2023/05/27 02:21:16;;;;;;;;;10.33;8.67;;;;;;;;5041216;28;45382;-75
2023/05/27 02:23:42;;;;;;;;;10.00;9.00;;;;;;;;5039780;28;45810;-75
2023/05/27 02:26:07;;;;;;;;;13.00;11.00;;;;;;;;5041073;28;45988;-75
2023/05/27 02:28:32;;;;;;;;;11.00;10.33;;;;;;;;5042886;28;45371;-75
2023/05/27 02:30:59;;;;;;;;;12.67;12.00;;;;;;;;5059986;28;45256;-74
2023/05/27 02:33:24;;;;;;;;;11.00;10.00;;;;;;;;5060890;28;45156;-74
2023/05/27 02:35:49;;;;;;;;;10.33;9.33;;;;;;;;5060700;28;45204;-75
2023/05/27 02:38:14;;;;;;;;;13.00;12.67;;;;;;;;5060885;28;45302;-74
2023/05/27 02:40:39;;;;;;;;;11.00;9.67;;;;;;;;5061177;28;45405;-74
2023/05/27 02:43:05;;;;;;;;;12.67;12.00;;;;;;;;5060571;28;45277;-75
2023/05/27 02:45:30;;;;;;;;;9.67;9.00;;;;;;;;5060792;28;45377;-75
2023/05/27 02:47:56;;;;;;;;;12.33;10.67;;;;;;;;5060847;28;45224;-74
2023/05/27 02:50:21;;;;;;;;;12.00;10.00;;;;;;;;5060859;28;45254;-75
2023/05/27 02:52:46;;;;;;;;;12.67;10.67;;;;;;;;5059269;28;46097;-75
2023/05/27 02:55:12;;;;;;;;;13.67;12.67;;;;;;;;5060626;28;45457;-74
2023/05/27 02:57:37;;;;;;;;;11.00;10.33;;;;;;;;5060838;28;45197;-74
2023/05/27 03:00:03;;;;;;;;;12.33;12.33;;;;;;;;5060649;28;45559;-74
2023/05/27 03:02:28;;;;;;;;;12.33;10.33;;;;;;;;5060615;28;45355;-74
2023/05/27 03:04:55;;;;;;;;;10.00;8.33;;;;;;;;5060471;28;46149;-74
2023/05/27 03:07:20;;;;;;;;;12.00;12.00;;;;;;;;5060417;28;45378;-74
2023/05/27 03:09:45;;;;;;;;;12.67;11.67;;;;;;;;5060152;28;45757;-74
2023/05/27 03:12:11;;;;;;;;;10.67;10.00;;;;;;;;5060355;28;45342;-74
2023/05/27 03:14:36;;;;;;;;;8.67;8.67;;;;;;;;5060185;28;46216;-74
2023/05/27 03:17:01;;;;;;;;;10.00;9.00;;;;;;;;5060357;28;45294;-75
2023/05/27 03:19:26;;;;;;;;;9.00;7.33;;;;;;;;5059039;28;45410;-75
2023/05/27 03:21:52;;;;;;;;;9.00;9.00;;;;;;;;5058812;28;46431;-75
2023/05/27 03:24:17;;;;;;;;;8.00;7.00;;;;;;;;5060194;28;45310;-75
2023/05/27 03:26:42;;;;;;;;;8.33;7.33;;;;;;;;5060327;28;45274;-75
2023/05/27 03:29:07;;;;;;;;;12.00;11.00;;;;;;;;5060044;28;45272;-75
2023/05/27 03:31:33;;;;;;;;;7.00;7.00;;;;;;;;5058785;28;45903;-75
2023/05/27 03:33:58;;;;;;;;;12.67;7.67;;;;;;;;5058631;28;47157;-74
2023/05/27 03:36:23;;;;;;;;;9.67;8.33;;;;;;;;5060056;28;45220;-74
2023/05/27 03:38:48;;;;;;;;;10.67;9.00;;;;;;;;5059770;28;45297;-74
2023/05/27 03:41:14;;;;;;;;;9.00;8.00;;;;;;;;5059996;28;45571;-75
2023/05/27 03:43:39;;;;;;;;;10.33;8.67;;;;;;;;5059719;28;46103;-75
2023/05/27 03:46:04;;;;;;;;;10.33;9.00;;;;;;;;5058649;28;45308;-75
2023/05/27 03:48:29;;;;;;;;;11.33;10.67;;;;;;;;5060124;28;45325;-74
2023/05/27 03:50:54;;;;;;;;;11.00;11.00;;;;;;;;5058459;28;47027;-76
2023/05/27 03:53:20;;;;;;;;;9.67;9.00;;;;;;;;5059824;28;45324;-74
2023/05/27 03:55:45;;;;;;;;;9.00;9.00;;;;;;;;5059677;28;45267;-75
2023/05/27 03:58:13;;;;;;;;;8.00;7.33;;;;;;;;5058384;28;45211;-75
2023/05/27 04:00:38;;;;;;;;;11.00;8.50;;;;;;;;5059727;28;45477;-75
2023/05/27 04:03:03;;;;;;;;;9.67;8.33;;;;;;;;5058182;28;46098;-75
2023/05/27 04:05:29;;;;;;;;;9.67;9.00;;;;;;;;5059620;28;45420;-75
2023/05/27 04:07:54;;;;;;;;;11.67;11.00;;;;;;;;5059677;28;45382;-74
2023/05/27 04:10:20;;;;;;;;;7.33;7.33;;;;;;;;5059650;28;45345;-75
2023/05/27 04:12:45;;;;;;;;;8.00;8.00;;;;;;;;5059492;28;45419;-74
2023/05/27 04:15:10;;;;;;;;;7.67;5.33;;;;;;;;5059387;28;45583;-74
2023/05/27 04:17:36;;;;;;;;;11.00;10.00;;;;;;;;5059784;28;45414;-75
2023/05/27 04:20:09;;;;;;;;;9.33;9.33;;;;;;;;5060110;28;45295;-74
2023/05/27 04:22:34;;;;;;;;;10.33;9.00;;;;;;;;5061546;28;47172;-74
2023/05/27 04:25:01;;;;;;;;;10.00;10.00;;;;;;;;5063016;28;45343;-75
2023/05/27 04:27:26;;;;;;;;;11.33;9.00;;;;;;;;5063324;28;45401;-75
2023/05/27 04:29:51;;;;;;;;;8.33;8.33;;;;;;;;5062541;28;45655;-74
2023/05/27 04:32:17;;;;;;;;;12.00;10.00;;;;;;;;5062868;28;46014;-74
2023/05/27 04:34:42;;;;;;;;;10.00;9.00;;;;;;;;5062938;28;45345;-75
2023/05/27 04:37:09;;;;;;;;;8.00;8.00;;;;;;;;5061261;28;45309;-75
2023/05/27 04:39:34;;;;;;;;;9.00;9.00;;;;;;;;5062862;28;45464;-75
2023/05/27 04:42:01;;;;;;;;;7.33;6.00;;;;;;;;5062773;28;45377;-74
2023/05/27 04:44:26;;;;;;;;;11.67;9.00;;;;;;;;5062535;28;45319;-74
2023/05/27 04:46:52;;;;;;;;;8.00;8.00;;;;;;;;5062919;28;45462;-74
2023/05/27 04:49:17;;;;;;;;;10.00;9.00;;;;;;;;5062597;28;45403;-75
2023/05/27 04:51:44;;;;;;;;;9.67;9.67;;;;;;;;5060937;28;47506;-75
2023/05/27 04:54:10;;;;;;;;;9.67;9.67;;;;;;;;5061343;28;45599;-75
2023/05/27 04:56:36;;;;;;;;;7.67;6.67;;;;;;;;5062704;28;45303;-74
2023/05/27 04:59:01;;;;;;;;;7.67;7.33;;;;;;;;5062362;28;45485;-75
2023/05/27 05:01:27;;;;;;;;;9.67;9.00;;;;;;;;5062356;28;45428;-75
2023/05/27 05:04:02;;;;;;;;;11.00;10.00;;;;;;;;5061244;28;45379;-74
2023/05/27 05:06:27;;;;;;;;;9.00;8.00;;;;;;;;5055604;28;45386;-75
2023/05/27 05:08:53;;;;;;;;;8.33;7.67;;;;;;;;5051618;28;46089;-74
2023/05/27 05:11:18;;;;;;;;;9.33;8.67;;;;;;;;5049057;28;47565;-73
2023/05/27 05:13:43;;;;;;;;;8.00;8.00;;;;;;;;5050458;28;45522;-73
2023/05/27 05:16:08;;;;;;;;;13.00;13.00;;;;;;;;5042979;28;45190;-73
2023/05/27 05:18:34;;;;;;;;;14.00;12.33;;;;;;;;5042074;28;45351;-73
2023/05/27 05:20:59;;;;;;;;;11.67;11.00;;;;;;;;5042011;28;45297;-73
2023/05/27 05:23:24;;;;;;;;;12.00;8.67;;;;;;;;5042071;28;45342;-74
2023/05/27 05:25:55;;;;;;;;;8.00;8.00;;;;;;;;5040704;28;45322;-75
2023/05/27 05:28:20;;;;;;;;;11.00;8.67;;;;;;;;5042179;28;45309;-75
2023/05/27 05:30:45;;;;;;;;;8.00;8.00;;;;;;;;5060389;28;46984;-75
2023/05/27 05:33:10;;;;;;;;;7.00;6.67;;;;;;;;5060500;28;45278;-76
2023/05/27 05:35:36;;;;;;;;;11.33;11.00;;;;;;;;5050924;28;45305;-75
2023/05/27 05:38:01;;;;;;;;;11.33;8.67;;;;;;;;5046030;28;45974;-75
2023/05/27 05:40:26;;;;;;;;;8.67;8.67;;;;;;;;5060706;28;46331;-76
2023/05/27 05:42:51;;;;;;;;;12.67;10.33;;;;;;;;5061911;28;45326;-77
2023/05/27 05:45:16;;;;;;;;;9.00;8.33;;;;;;;;5060310;28;45281;-77
2023/05/27 05:47:42;;;;;;;;;9.67;9.67;;;;;;;;5061817;28;45232;-72
2023/05/27 05:50:07;;;;;;;;;9.00;7.67;;;;;;;;5060981;28;46090;-72
2023/05/27 05:52:32;;;;;;;;;12.33;12.33;;;;;;;;5060236;28;45434;-75
2023/05/27 05:54:57;;;;;;;;;4.00;4.00;;;;;;;;5059185;28;45316;-76
2023/05/27 05:57:22;;;;;;;;;11.00;10.67;;;;;;;;5061428;28;45244;-76
2023/05/27 05:59:48;;;;;;;;;8.67;7.00;;;;;;;;5059863;28;48265;-76
2023/05/27 06:02:13;;;;;;;;;12.67;11.33;;;;;;;;5060253;28;45190;-77
2023/05/27 06:04:38;;;;;;;;;8.33;8.33;;;;;;;;5057576;28;45205;-77
2023/05/27 06:07:03;;;;;;;;;6.00;5.67;;;;;;;;5047074;28;45675;-76
2023/05/27 06:09:29;;;;;;;;;9.33;8.33;;;;;;;;5046082;28;47489;-77
2023/05/27 06:11:54;;;;;;;;;11.67;9.33;;;;;;;;5047441;28;45142;-77
2023/05/27 06:14:19;;;;;;;;;10.33;10.33;;;;;;;;5048088;28;45778;-77
2023/05/27 06:16:44;;;;;;;;;8.67;8.67;;;;;;;;5042065;28;46804;-77
2023/05/27 06:19:10;;;;;;;;;11.00;10.33;;;;;;;;5048479;28;46149;-77
2023/05/27 06:21:35;;;;;;;;;10.33;9.67;;;;;;;;5044681;28;45447;-78
2023/05/27 06:24:00;;;;;;;;;9.00;9.00;;;;;;;;5039613;28;45324;-75
2023/05/27 06:26:27;;;;;;;;;10.00;10.00;;;;;;;;5039509;28;46414;-75
2023/05/27 06:28:52;;;;;;;;;9.67;8.67;;;;;;;;5045464;28;45213;-75
2023/05/27 06:31:17;;;;;;;;;12.67;10.67;;;;;;;;5054675;28;45428;-75
2023/05/27 06:33:42;;;;;;;;;11.33;11.33;;;;;;;;5049976;28;45384;-77
2023/05/27 06:36:08;;;;;;;;;12.33;10.00;;;;;;;;5053383;28;45590;-75
2023/05/27 06:38:33;;;;;;;;;13.00;11.00;;;;;;;;5060653;28;46263;-76
2023/05/27 06:40:58;;;;;;;;;11.00;10.00;;;;;;;;5048417;28;45376;-75
2023/05/27 06:43:23;;;;;;;;;9.00;8.00;;;;;;;;5052893;28;45567;-76
2023/05/27 06:45:48;;;;;;;;;10.33;10.00;;;;;;;;5050299;28;45566;-76
2023/05/27 06:48:14;;;;;;;;;10.33;10.33;;;;;;;;5053261;28;46272;-75
2023/05/27 06:50:39;;;;;;;;;9.33;8.67;;;;;;;;5044613;28;46014;-76
2023/05/27 06:53:04;;;;;;;;;12.67;11.67;;;;;;;;5018846;28;47199;-75
2023/05/27 06:55:30;;;;;;;;;12.67;12.33;;;;;;;;5048649;28;46181;-75
2023/05/27 06:57:55;;;;;;;;;8.33;6.00;;;;;;;;5059661;28;46274;-76
2023/05/27 07:00:20;;;;;;;;;8.67;8.67;;;;;;;;5041919;28;45463;-76
2023/05/27 07:02:45;;;;;;;;;12.00;12.00;;;;;;;;5038212;28;45378;-76
2023/05/27 07:05:10;;;;;;;;;11.33;10.00;;;;;;;;5039800;28;45356;-77
2023/05/27 07:07:35;;;;;;;;;13.00;10.00;;;;;;;;5039941;28;45386;-75
2023/05/27 07:10:01;;;;;;;;;15.33;13.33;;;;;;;;5039502;28;45335;-75
2023/05/27 07:12:26;;;;;;;;;11.00;10.67;;;;;;;;5037498;28;45371;-76
2023/05/27 07:14:51;;;;;;;;;13.33;12.00;;;;;;;;5040117;28;47351;-76
2023/05/27 07:17:16;;;;;;;;;13.00;10.00;;;;;;;;5046613;28;45402;-75
2023/05/27 07:19:41;;;;;;;;;9.33;9.33;;;;;;;;5043627;28;45412;-75
2023/05/27 07:22:07;;;;;;;;;8.67;7.67;;;;;;;;5047524;28;45398;-76
2023/05/27 07:24:32;;;;;;;;;12.00;10.00;;;;;;;;5050205;28;46448;-76
2023/05/27 07:26:57;;;;;;;;;11.00;9.00;;;;;;;;5052100;28;46177;-77
2023/05/27 07:29:22;;;;;;;;;9.67;9.67;;;;;;;;5050598;28;45398;-76
2023/05/27 07:31:47;;;;;;;;;10.00;10.00;;;;;;;;5046215;28;45288;-77
2023/05/27 07:34:13;;;;;;;;;10.67;9.67;;;;;;;;5049763;28;45253;-77
2023/05/27 07:36:38;;;;;;;;;10.33;10.00;;;;;;;;5053127;28;46098;-76
2023/05/27 07:39:03;;;;;;;;;12.33;10.67;;;;;;;;5041792;28;45460;-76
2023/05/27 07:41:29;;;;;;;;;7.00;6.00;;;;;;;;5038569;28;45638;-77
2023/05/27 07:43:54;;;;;;;;;10.00;10.00;;;;;;;;5036906;28;45949;-78
2023/05/27 07:46:19;;;;;;;;;9.00;9.00;;;;;;;;5037635;28;47563;-78
2023/05/27 07:48:45;;;;;;;;;14.00;12.33;;;;;;;;5045382;28;45408;-78
2023/05/27 07:51:10;;;;;;;;;12.00;10.00;;;;;;;;5039401;28;45276;-79
2023/05/27 07:53:36;;;;;;;;;10.67;10.67;;;;;;;;5038747;28;45505;-78
2023/05/27 07:56:01;;;;;;;;;7.00;7.00;;;;;;;;5036038;28;48167;-79
2023/05/27 07:58:26;;;;;;;;;9.00;9.00;;;;;;;;5038663;28;45452;-77
2023/05/27 08:00:51;;;;;;;;;9.67;8.00;;;;;;;;5038995;28;45427;-77
2023/05/27 08:03:17;;;;;;;;;8.00;8.00;;;;;;;;5037575;28;47272;-77
2023/05/27 08:05:42;;;;;;;;;10.33;9.33;;;;;;;;5037542;28;47229;-77
2023/05/27 08:08:07;;;;;;;;;11.00;9.67;;;;;;;;5040280;28;45455;-78
2023/05/27 08:10:32;;;;;;;;;9.00;9.00;;;;;;;;5052818;28;45512;-77
2023/05/27 08:12:57;;;;;;;;;10.00;9.33;;;;;;;;5044238;28;45589;-77
2023/05/27 08:15:22;;;;;;;;;12.67;10.67;;;;;;;;5049352;28;45683;-78
2023/05/27 08:17:48;;;;;;;;;9.00;9.00;;;;;;;;5053306;28;45717;-76
2023/05/27 08:20:13;;;;;;;;;10.33;10.33;;;;;;;;5059656;28;45329;-76
2023/05/27 08:22:38;;;;;;;;;9.33;9.33;;;;;;;;5057595;28;46763;-77
2023/05/27 08:25:04;;;;;;;;;11.00;11.00;;;;;;;;5057867;28;47010;-77
2023/05/27 08:27:48;;;;;;;;;10.67;9.67;;;;;;;;5059411;28;45318;-76
2023/05/27 08:30:14;;;;;;;;;10.33;8.67;;;;;;;;5059121;28;45494;-76
2023/05/27 08:32:42;;;;;;;;;11.67;8.33;;;;;;;;5057533;28;47693;-76
2023/05/27 08:35:07;;;;;;;;;11.67;11.67;;;;;;;;5057818;28;47334;-75
2023/05/27 08:37:33;;;;;;;;;13.00;10.67;;;;;;;;5058503;28;45488;-78
2023/05/27 08:39:58;;;;;;;;;8.67;8.67;;;;;;;;5056192;28;45449;-75
2023/05/27 08:42:24;;;;;;;;;9.67;9.67;;;;;;;;5056917;28;45494;-76
2023/05/27 08:44:49;;;;;;;;;13.67;11.00;;;;;;;;5049627;28;46227;-75
2023/05/27 08:47:15;;;;;;;;;14.67;12.33;;;;;;;;5048610;28;45278;-76
2023/05/27 08:49:41;;;;;;;;;8.33;8.00;;;;;;;;5049230;28;45502;-77
2023/05/27 08:52:06;;;;;;;;;12.00;11.00;;;;;;;;5048618;28;45409;-76
2023/05/27 08:54:33;;;;;;;;;13.67;10.33;;;;;;;;5049415;28;45316;-78
2023/05/27 08:56:59;;;;;;;;;10.33;10.33;;;;;;;;5046883;28;45430;-76
2023/05/27 08:59:25;;;;;;;;;11.00;10.00;;;;;;;;5053785;28;45654;-76
2023/05/27 09:01:51;;;;;;;;;11.00;9.67;;;;;;;;5057080;28;46650;-75
2023/05/27 09:04:16;;;;;;;;;8.00;8.00;;;;;;;;5058334;28;45582;-75
2023/05/27 09:06:41;;;;;;;;;10.00;9.33;;;;;;;;5060163;28;45441;-76
2023/05/27 09:09:08;;;;;;;;;11.00;11.00;;;;;;;;5061801;28;45796;-77
2023/05/27 09:11:35;;;;;;;;;12.67;12.33;;;;;;;;5061386;28;45556;-79
2023/05/27 09:14:00;;;;;;;;;8.00;8.00;;;;;;;;5062348;28;45935;-79
2023/05/27 09:16:25;;;;;;;;;7.67;7.67;;;;;;;;5063865;28;45350;-78
2023/05/27 09:18:51;;;;;;;;;10.67;10.33;;;;;;;;5062137;28;45326;-76
2023/05/27 09:21:16;;;;;;;;;9.00;9.00;;;;;;;;5063218;28;45327;-78
2023/05/27 09:23:41;;;;;;;;;8.67;8.33;;;;;;;;5060008;28;45496;-77
2023/05/27 09:26:07;;;;;;;;;13.00;11.00;;;;;;;;5064474;28;45390;-79
2023/05/27 09:28:35;;;;;;;;;10.00;10.00;;;;;;;;5064660;28;45318;-77
2023/05/27 09:31:02;;;;;;;;;10.33;10.33;;;;;;;;5064007;28;45433;-78
2023/05/27 09:33:29;;;;;;;;;8.67;8.67;;;;;;;;5062154;28;47831;-76
2023/05/27 09:35:54;;;;;;;;;11.00;10.00;;;;;;;;5065643;28;45279;-79
2023/05/27 09:38:20;;;;;;;;;12.00;11.00;;;;;;;;5065950;28;45296;-78
2023/05/27 09:40:45;;;;;;;;;9.67;9.67;;;;;;;;5063771;28;45868;-76
2023/05/27 09:43:16;;;;;;;;;10.00;10.00;;;;;;;;5065357;28;45526;-76
2023/05/27 09:45:42;;;;;;;;;11.67;9.67;;;;;;;;5068403;28;45365;-77
2023/05/27 09:48:09;;;;;;;;;8.33;8.33;;;;;;;;5066639;28;45385;-79
2023/05/27 09:50:35;;;;;;;;;11.00;10.67;;;;;;;;5065520;28;46133;-79
2023/05/27 09:53:02;;;;;;;;;10.00;9.33;;;;;;;;5065808;28;45410;-78
2023/05/27 09:55:28;;;;;;;;;10.67;10.67;;;;;;;;5064662;28;45347;-79
2023/05/27 09:57:53;;;;;;;;;9.00;9.00;;;;;;;;5066055;28;44775;-79
2023/05/27 10:00:19;;;;;;;;;11.33;9.67;;;;;;;;5066218;28;45472;-79
2023/05/27 10:02:45;;;;;;;;;11.00;10.33;;;;;;;;5063792;28;48171;-76
2023/05/27 10:05:11;;;;;;;;;10.33;9.67;;;;;;;;5063348;28;46211;-79
2023/05/27 10:07:38;;;;;;;;;12.00;10.67;;;;;;;;5062898;28;45440;-78
2023/05/27 10:10:05;;;;;;;;;9.00;9.00;;;;;;;;5051922;28;45479;-78
2023/05/27 10:12:30;;;;;;;;;12.00;12.00;;;;;;;;5066137;28;45291;-77
2023/05/27 10:14:55;;;;;;;;;8.00;8.00;;;;;;;;5065846;28;45240;-78
2023/05/27 10:17:21;;;;;;;;;15.00;14.67;;;;;;;;5066311;28;45192;-79
2023/05/27 10:19:56;;;;;;;;;13.00;10.67;;;;;;;;5064409;28;45172;-76
2023/05/27 10:22:22;;;;;;;;;11.33;10.67;;;;;;;;5065287;28;45289;-78
2023/05/27 10:24:52;;;;;;;;;12.00;11.00;;;;;;;;5066833;28;45235;-79
2023/05/27 10:27:18;;;;;;;;;10.33;10.33;;;;;;;;5064339;28;45330;-77
2023/05/27 10:29:43;;;;;;;;;10.67;9.67;;;;;;;;5061290;28;47128;-79
2023/05/27 10:32:08;;;;;;;;;11.67;10.00;;;;;;;;5062339;28;48109;-77
2023/05/27 10:34:38;;;;;;;;;10.33;9.33;;;;;;;;5062095;28;45208;-78
2023/05/27 10:37:03;;;;;;;;;13.33;11.33;;;;;;;;5062374;28;45302;-78
2023/05/27 10:39:28;;;;;;;;;10.67;9.33;;;;;;;;5061932;28;46146;-78
2023/05/27 10:41:54;;;;;;;;;9.00;9.00;;;;;;;;5062963;28;45430;-79
2023/05/27 10:44:30;;;;;;;;;9.00;9.00;;;;;;;;5055613;28;45392;-79
2023/05/27 10:47:09;;;;;;;;;11.00;9.33;;;;;;;;5057612;28;45273;-79
2023/05/27 10:49:55;;;;;;;;;10.00;10.00;;;;;;;;5045028;28;45200;-77
2023/05/27 10:52:23;;;;;;;;;11.00;9.33;;;;;;;;5063974;28;46240;-79
2023/05/27 10:54:50;;;;;;;;;11.33;11.33;;;;;;;;5054649;28;45277;-79
2023/05/27 10:57:16;;;;;;;;;12.00;12.00;;;;;;;;5051934;28;45350;-79
2023/05/27 10:59:47;;;;;;;;;10.33;9.33;;;;;;;;5059368;28;45387;-79
2023/05/27 11:02:13;;;;;;;;;8.00;8.00;;;;;;;;5064333;28;46495;-78
2023/05/27 11:04:38;;;;;;;;;11.00;10.00;;;;;;;;5063398;28;45346;-78
2023/05/27 11:07:04;;;;;;;;;11.67;11.00;;;;;;;;5062220;28;45343;-79
2023/05/27 11:09:29;;;;;;;;;9.33;9.33;;;;;;;;5062635;28;45259;-79
2023/05/27 11:12:02;;;;;;;;;12.00;10.67;;;;;;;;5060518;28;48174;-79
2023/05/27 11:14:27;;;;;;;;;10.00;9.00;;;;;;;;5061011;28;45304;-79
2023/05/27 11:16:52;;;;;;;;;10.33;10.33;;;;;;;;5062222;28;45719;-79
2023/05/27 11:19:18;;;;;;;;;10.67;9.67;;;;;;;;5059309;28;46394;-79
2023/05/27 11:21:47;;;;;;;;;9.00;9.00;;;;;;;;5050365;28;45498;-80
2023/05/27 11:24:19;;;;;;;;;11.67;10.33;;;;;;;;5040549;28;45363;-80
2023/05/27 11:26:46;;;;;;;;;11.25;11.25;;;;;;;;5042901;28;45378;-82
2023/05/27 11:29:12;;;;;;;;;10.00;8.00;;;;;;;;5052016;28;46284;-80
2023/05/27 11:31:40;;;;;;;;;13.33;12.67;;;;;;;;5063034;28;47414;-80
2023/05/27 11:34:11;;;;;;;;;12.00;10.00;;;;;;;;5067879;28;45342;-79
2023/05/27 11:36:36;;;;;;;;;12.33;11.00;;;;;;;;5064225;28;45295;-79
2023/05/27 11:39:02;;;;;;;;;8.67;7.67;;;;;;;;5062188;28;46258;-78
2023/05/27 11:41:30;;;;;;;;;11.00;11.00;;;;;;;;5063417;28;45302;-79
2023/05/27 11:43:57;;;;;;;;;11.00;11.00;;;;;;;;5053512;28;45402;-80
2023/05/27 11:46:23;;;;;;;;;9.33;9.33;;;;;;;;5060760;28;45370;-81
2023/05/27 11:48:48;;;;;;;;;11.00;11.00;;;;;;;;5061412;28;45370;-80
2023/05/27 11:51:14;;;;;;;;;11.00;11.00;;;;;;;;5060535;28;45565;-81
2023/05/27 11:53:40;;;;;;;;;10.67;9.67;;;;;;;;5061749;28;45295;-82
2023/05/27 11:56:06;;;;;;;;;11.00;11.00;;;;;;;;5061508;28;45313;-79
2023/05/27 11:58:31;;;;;;;;;14.67;11.00;;;;;;;;5061852;28;45413;-79
2023/05/27 12:00:56;;;;;;;;;11.33;9.00;;;;;;;;5060375;28;48237;-80
2023/05/27 12:03:21;;;;;;;;;11.67;10.33;;;;;;;;5064220;28;45309;-79
2023/05/27 12:05:47;;;;;;;;;13.00;11.00;;;;;;;;5057573;28;45428;-80
2023/05/27 12:08:12;;;;;;;;;10.33;10.00;;;;;;;;5065996;28;45272;-79
2023/05/27 12:10:37;;;;;;;;;9.33;9.00;;;;;;;;5061906;28;47320;-79
2023/05/27 12:13:03;;;;;;;;;10.00;10.00;;;;;;;;5060216;28;45498;-79
2023/05/27 12:15:28;;;;;;;;;11.33;11.33;;;;;;;;5063559;28;45377;-78
2023/05/27 12:17:53;;;;;;;;;12.67;12.00;;;;;;;;5062510;28;45209;-80
2023/05/27 12:20:19;;;;;;;;;9.67;9.67;;;;;;;;5061068;28;45466;-78
2023/05/27 12:22:45;;;;;;;;;10.33;10.33;;;;;;;;5060497;28;45329;-78
2023/05/27 12:25:10;;;;;;;;;11.33;10.33;;;;;;;;5060500;28;45212;-79
2023/05/27 12:27:35;;;;;;;;;13.33;12.00;;;;;;;;5061701;28;45426;-80
2023/05/27 12:30:00;;;;;;;;;11.00;11.00;;;;;;;;5058688;28;48214;-83
2023/05/27 12:32:26;;;;;;;;;11.67;11.67;;;;;;;;5060577;28;45369;-79
2023/05/27 12:34:51;;;;;;;;;10.00;10.00;;;;;;;;5061211;28;45229;-82
2023/05/27 12:37:16;;;;;;;;;11.67;11.67;;;;;;;;5061632;28;45475;-80
2023/05/27 12:39:42;;;;;;;;;14.00;13.67;;;;;;;;5059789;28;45249;-78
2023/05/27 12:42:07;;;;;;;;;12.67;12.00;;;;;;;;5062573;28;45647;-81
2023/05/27 12:44:33;;;;;;;;;13.33;12.33;;;;;;;;5066865;28;44792;-79
2023/05/27 12:46:58;;;;;;;;;10.33;9.33;;;;;;;;5064946;28;45151;-79
2023/05/27 12:49:23;;;;;;;;;12.00;10.33;;;;;;;;5064546;28;45513;-82
2023/05/27 12:51:48;;;;;;;;;11.67;11.00;;;;;;;;5065601;28;45318;-80
2023/05/27 12:54:14;;;;;;;;;11.00;11.00;;;;;;;;5063995;28;45523;-81
2023/05/27 12:56:39;;;;;;;;;11.00;10.33;;;;;;;;5063711;28;46376;-81
2023/05/27 12:59:05;;;;;;;;;12.33;11.00;;;;;;;;5063411;28;47369;-82
2023/05/27 13:01:30;;;;;;;;;12.33;10.67;;;;;;;;5064960;28;45284;-82
2023/05/27 13:03:55;;;;;;;;;11.67;11.33;;;;;;;;5064196;28;45600;-82
2023/05/27 13:06:21;;;;;;;;;13.00;12.67;;;;;;;;5062167;28;46359;-81
2023/05/27 13:08:46;;;;;;;;;11.67;10.00;;;;;;;;5063370;28;45540;-81
2023/05/27 13:11:12;;;;;;;;;11.00;10.33;;;;;;;;5066164;28;45384;-84
2023/05/27 13:13:37;;;;;;;;;11.00;10.33;;;;;;;;5066548;28;45314;-79
2023/05/27 13:16:02;;;;;;;;;10.67;10.67;;;;;;;;5064413;28;46079;-82
2023/05/27 13:18:27;;;;;;;;;13.33;12.33;;;;;;;;5065826;28;45226;-82
2023/05/27 13:20:52;;;;;;;;;13.00;13.00;;;;;;;;5066456;28;45326;-84
2023/05/27 13:23:18;;;;;;;;;13.67;12.00;;;;;;;;5059143;28;45628;-79
2023/05/27 13:25:43;;;;;;;;;11.00;11.00;;;;;;;;5042949;28;46001;-76
2023/05/27 13:28:09;;;;;;;;;11.33;11.00;;;;;;;;5042299;28;45276;-79
2023/05/27 13:30:34;;;;;;;;;9.33;9.00;;;;;;;;5060913;28;45997;-77
2023/05/27 13:32:59;;;;;;;;;9.75;9.75;;;;;;;;5062824;28;45438;-75
2023/05/27 13:35:24;;;;;;;;;13.33;12.33;;;;;;;;5062041;28;45277;-76
2023/05/27 13:37:50;;;;;;;;;13.33;13.00;;;;;;;;5061741;28;46687;-75
2023/05/27 13:40:15;;;;;;;;;12.67;11.00;;;;;;;;5062249;28;45263;-76
2023/05/27 13:42:41;;;;;;;;;13.00;13.00;;;;;;;;5064162;28;45252;-75
2023/05/27 13:45:06;;;;;;;;;12.67;11.00;;;;;;;;5055686;28;45481;-76
2023/05/27 13:47:31;;;;;;;;;9.67;9.67;;;;;;;;5041673;28;45681;-76
2023/05/27 13:49:57;;;;;;;;;12.67;12.67;;;;;;;;5041674;28;45635;-75
2023/05/27 13:52:22;;;;;;;;;13.00;12.67;;;;;;;;5042446;28;45292;-77
2023/05/27 13:54:47;;;;;;;;;11.00;11.00;;;;;;;;5042021;28;45489;-77
2023/05/27 13:57:12;;;;;;;;;7.67;7.67;;;;;;;;5040457;28;47158;-77
2023/05/27 13:59:38;;;;;;;;;10.67;10.00;;;;;;;;5042417;28;45633;-78
2023/05/27 14:02:05;;;;;;;;;10.67;10.67;;;;;;;;5051865;28;45477;-76
2023/05/27 14:04:31;;;;;;;;;12.00;11.00;;;;;;;;5041275;28;45755;-75
2023/05/27 14:06:56;;;;;;;;;10.33;10.33;;;;;;;;5039767;28;46742;-76
2023/05/27 14:09:21;;;;;;;;;10.67;10.67;;;;;;;;5041277;28;45403;-75
2023/05/27 14:11:46;;;;;;;;;10.67;10.67;;;;;;;;5039552;28;45500;-75
2023/05/27 14:14:12;;;;;;;;;12.67;10.00;;;;;;;;5040983;28;45485;-75
2023/05/27 14:16:37;;;;;;;;;11.00;11.00;;;;;;;;5039864;28;46262;-75